createdAt,value
2022-10-26T00:01:23.247Z,9.97
2022-10-26T00:03:51.186Z,8.43
2022-10-26T00:06:20.694Z,5.40
2022-10-26T00:08:49.562Z,7.77
2022-10-26T00:11:20.062Z,9.13
2022-10-26T00:13:48.975Z,9.67
2022-10-26T00:16:19.758Z,7.53
2022-10-26T00:18:47.942Z,6.67
2022-10-26T00:21:16.032Z,7.93
2022-10-26T00:23:44.091Z,8.03
2022-10-26T00:26:12.394Z,8.23
2022-10-26T00:28:41.659Z,7.83
2022-10-26T00:31:13.266Z,5.97
2022-10-26T00:33:41.173Z,9.63
2022-10-26T00:36:10.341Z,12.90
2022-10-26T00:38:38.360Z,7.50
2022-10-26T00:41:06.449Z,9.57
2022-10-26T00:43:36.700Z,5.53
2022-10-26T00:46:12.961Z,8.90
2022-10-26T00:48:45.423Z,6.73
2022-10-26T00:51:18.798Z,7.10
2022-10-26T00:53:47.101Z,8.93
2022-10-26T00:56:15.051Z,5.47
2022-10-26T00:58:43.890Z,8.10
2022-10-26T01:01:13.246Z,6.93
2022-10-26T01:03:41.318Z,8.60
2022-10-26T01:06:10.200Z,6.77
2022-10-26T01:08:38.290Z,7.90
2022-10-26T01:11:06.679Z,7.93
2022-10-26T01:13:36.739Z,6.53
2022-10-26T01:16:17.995Z,8.63
2022-10-26T01:18:55.317Z,11.00
2022-10-26T01:21:51.317Z,8.47
2022-10-26T01:24:53.243Z,13.17
2022-10-26T01:27:28.141Z,8.50
2022-10-26T01:30:33.104Z,8.30
2022-10-26T01:33:24.134Z,6.80
2022-10-26T01:36:00.695Z,8.53
2022-10-26T01:38:33.943Z,6.20
2022-10-26T01:41:28.239Z,9.50
2022-10-26T01:44:00.132Z,7.43
2022-10-26T01:46:34.353Z,9.83
2022-10-26T01:49:07.690Z,7.50
2022-10-26T01:51:36.437Z,6.33
2022-10-26T01:54:04.343Z,8.50
2022-10-26T01:56:37.450Z,7.97
2022-10-26T01:59:23.900Z,12.50
2022-10-26T02:02:34.550Z,7.13
2022-10-26T02:05:30.256Z,8.70
2022-10-26T02:08:08.945Z,8.50
2022-10-26T02:10:49.318Z,11.00
2022-10-26T02:13:21.844Z,8.30
2022-10-26T02:15:55.667Z,8.63
2022-10-26T02:18:31.801Z,12.03
2022-10-26T02:21:04.564Z,9.27
2022-10-26T02:23:36.330Z,9.40
2022-10-26T02:26:09.467Z,8.73
2022-10-26T02:28:45.861Z,8.67
2022-10-26T02:31:15.993Z,9.57
2022-10-26T02:36:26.656Z,9.10
2022-10-26T02:38:56.692Z,7.13
2022-10-26T02:41:27.624Z,9.40
2022-10-26T02:44:03.016Z,11.80
2022-10-26T02:46:31.006Z,6.93
2022-10-26T02:49:00.399Z,9.50
2022-10-26T02:51:35.167Z,9.93
2022-10-26T02:54:10.899Z,7.63
2022-10-26T02:56:45.011Z,7.40
2022-10-26T02:59:14.668Z,7.17
2022-10-26T03:01:43.371Z,8.90
2022-10-26T03:04:12.624Z,7.60
2022-10-26T03:06:40.479Z,8.43
2022-10-26T03:09:08.291Z,7.87
2022-10-26T03:11:36.139Z,9.37
2022-10-26T03:14:04.032Z,9.80
2022-10-26T03:16:31.856Z,10.17
2022-10-26T03:18:59.631Z,8.10
2022-10-26T03:21:29.116Z,8.87
2022-10-26T03:23:56.931Z,7.00
2022-10-26T03:26:25.219Z,7.63
2022-10-26T03:28:53.009Z,9.67
2022-10-26T03:31:20.932Z,11.77
2022-10-26T03:33:48.731Z,8.43
2022-10-26T03:36:16.539Z,8.43
2022-10-26T03:38:45.674Z,7.73
2022-10-26T03:41:13.473Z,6.57
2022-10-26T03:43:41.296Z,7.73
2022-10-26T03:46:09.087Z,6.43
2022-10-26T03:48:36.916Z,10.53
2022-10-26T03:51:04.905Z,7.27
2022-10-26T03:53:32.778Z,9.93
2022-10-26T03:56:01.901Z,10.57
2022-10-26T03:58:29.745Z,7.10
2022-10-26T04:00:57.627Z,5.57
2022-10-26T04:03:25.512Z,10.03
2022-10-26T04:05:53.371Z,6.63
2022-10-26T04:08:21.211Z,5.83
2022-10-26T04:10:49.022Z,5.67
2022-10-26T04:13:18.183Z,7.17
2022-10-26T04:15:46.066Z,6.80
2022-10-26T04:18:13.899Z,7.07
2022-10-26T04:20:42.858Z,7.63
2022-10-26T04:23:12.865Z,4.13
2022-10-26T04:25:41.055Z,8.80
2022-10-26T04:28:10.299Z,9.90
2022-10-26T04:30:40.098Z,6.17
2022-10-26T04:33:08.427Z,5.93
2022-10-26T04:35:36.304Z,7.83
2022-10-26T04:38:06.219Z,8.93
2022-10-26T04:40:35.307Z,9.40
2022-10-26T04:43:03.169Z,9.43
2022-10-26T04:45:31.620Z,6.67
2022-10-26T04:48:06.521Z,7.83
2022-10-26T04:50:34.995Z,8.40
2022-10-26T04:53:04.634Z,6.40
2022-10-26T04:55:32.440Z,7.20
2022-10-26T04:58:01.532Z,6.30
2022-10-26T05:00:32.609Z,7.67
2022-10-26T05:03:00.702Z,6.90
2022-10-26T05:05:31.532Z,9.17
2022-10-26T05:07:59.390Z,5.97
2022-10-26T05:10:27.796Z,6.43
2022-10-26T05:12:57.518Z,5.60
2022-10-26T05:15:25.735Z,5.90
2022-10-26T05:17:57.306Z,6.37
2022-10-26T05:20:29.535Z,7.27
2022-10-26T05:23:00.879Z,9.80
2022-10-26T05:25:31.112Z,6.03
2022-10-26T05:27:59.719Z,4.73
2022-10-26T05:30:28.327Z,10.23
2022-10-26T05:32:56.401Z,7.40
2022-10-26T05:35:24.499Z,5.00
2022-10-26T05:37:52.339Z,5.93
2022-10-26T05:40:22.380Z,7.07
2022-10-26T05:42:51.152Z,6.47
2022-10-26T05:45:19.555Z,8.70
2022-10-26T05:47:48.125Z,7.37
2022-10-26T05:50:16.298Z,5.90
2022-10-26T05:52:45.821Z,5.93
2022-10-26T05:55:15.882Z,9.50
2022-10-26T05:57:46.138Z,6.23
2022-10-26T06:00:18.620Z,6.53
2022-10-26T06:02:58.264Z,8.60
2022-10-26T06:05:30.061Z,8.90
2022-10-26T06:07:58.487Z,6.90
2022-10-26T06:10:27.352Z,6.87
2022-10-26T06:12:57.182Z,5.83
2022-10-26T06:15:25.787Z,6.37
2022-10-26T06:18:04.315Z,5.63
2022-10-26T06:20:44.688Z,5.07
2022-10-26T06:23:33.547Z,5.50
2022-10-26T06:26:07.977Z,7.00
2022-10-26T06:28:46.098Z,8.07
2022-10-26T06:31:16.761Z,6.03
2022-10-26T06:33:44.619Z,6.53
2022-10-26T06:36:22.507Z,6.53
2022-10-26T06:38:53.742Z,6.73
2022-10-26T06:41:22.140Z,4.03
2022-10-26T06:43:52.951Z,8.47
2022-10-26T06:46:32.433Z,6.50
2022-10-26T06:49:09.691Z,8.73
2022-10-26T06:51:44.593Z,3.87
2022-10-26T06:54:19.691Z,4.77
2022-10-26T06:56:47.968Z,6.23
2022-10-26T06:59:30.957Z,7.90
2022-10-26T07:02:01.664Z,7.40
2022-10-26T07:04:32.251Z,7.37
2022-10-26T07:07:00.123Z,6.57
2022-10-26T07:09:27.926Z,6.37
2022-10-26T07:11:55.886Z,5.93
2022-10-26T07:14:25.041Z,5.00
2022-10-26T07:16:53.243Z,4.80
2022-10-26T07:19:21.026Z,6.83
2022-10-26T07:21:48.808Z,6.90
2022-10-26T07:24:16.616Z,6.67
2022-10-26T07:26:44.428Z,5.00
2022-10-26T07:29:12.274Z,6.87
2022-10-26T07:31:41.552Z,5.20
2022-10-26T07:34:09.429Z,4.80
2022-10-26T07:36:37.575Z,3.80
2022-10-26T07:39:05.738Z,5.80
2022-10-26T07:41:34.125Z,4.17
2022-10-26T07:44:02.034Z,6.67
2022-10-26T07:46:29.855Z,6.23
2022-10-26T07:48:59.031Z,6.17
2022-10-26T07:51:26.856Z,5.80
2022-10-26T07:53:54.672Z,7.93
2022-10-26T07:56:22.743Z,7.27
2022-10-26T07:58:53.382Z,6.47
2022-10-26T08:01:21.759Z,5.97
2022-10-26T08:03:52.440Z,4.77
2022-10-26T08:06:21.860Z,5.80
2022-10-26T08:08:50.040Z,4.63
2022-10-26T08:11:18.593Z,4.90
2022-10-26T08:13:46.532Z,5.83
2022-10-26T08:16:15.040Z,6.00
2022-10-26T08:18:42.895Z,3.93
2022-10-26T08:21:18.080Z,4.83
2022-10-26T08:23:50.512Z,5.53
2022-10-26T08:26:18.485Z,6.00
2022-10-26T08:28:50.096Z,6.47
2022-10-26T08:31:17.930Z,5.30
2022-10-26T08:33:45.760Z,3.93
2022-10-26T08:36:19.752Z,5.63
2022-10-26T08:38:49.890Z,6.37
2022-10-26T08:41:17.781Z,3.53
2022-10-26T08:43:50.091Z,4.53
2022-10-26T08:46:22.987Z,3.90
2022-10-26T08:48:55.597Z,7.37
2022-10-26T08:51:26.364Z,4.97
2022-10-26T08:54:00.688Z,5.33
2022-10-26T08:56:34.463Z,6.37
2022-10-26T08:59:08.247Z,3.47
2022-10-26T09:01:36.221Z,6.13
2022-10-26T09:04:05.049Z,5.43
2022-10-26T09:06:42.391Z,5.17
2022-10-26T09:09:17.323Z,3.93
2022-10-26T09:11:56.611Z,4.33
2022-10-26T09:14:36.358Z,6.27
2022-10-26T09:17:11.986Z,5.87
2022-10-26T09:20:05.895Z,6.33
2022-10-26T09:22:43.919Z,7.57
2022-10-26T09:25:19.686Z,4.00
2022-10-26T09:27:51.771Z,5.60
2022-10-26T09:30:21.538Z,4.80
2022-10-26T09:32:51.084Z,6.73
2022-10-26T09:35:22.979Z,6.13
2022-10-26T09:37:55.536Z,5.50
2022-10-26T09:40:34.069Z,6.97
2022-10-26T09:43:06.504Z,7.33
2022-10-26T09:45:37.746Z,3.30
2022-10-26T09:48:11.894Z,4.13
2022-10-26T09:50:42.913Z,8.60
2022-10-26T09:53:10.935Z,4.80
2022-10-26T09:55:44.647Z,6.40
2022-10-26T09:58:17.517Z,4.47
2022-10-26T10:00:46.937Z,7.17
2022-10-26T10:03:25.711Z,4.83
2022-10-26T10:05:54.490Z,3.60
2022-10-26T10:08:23.912Z,3.67
2022-10-26T10:10:58.477Z,8.23
2022-10-26T10:13:28.490Z,6.27
2022-10-26T10:16:03.114Z,4.93
2022-10-26T10:18:31.082Z,4.17
2022-10-26T10:21:00.301Z,4.77
2022-10-26T10:23:31.333Z,5.93
2022-10-26T10:26:06.863Z,7.23
2022-10-26T10:28:35.540Z,5.97
2022-10-26T10:31:05.602Z,4.90
2022-10-26T10:33:35.988Z,5.13
2022-10-26T10:36:06.944Z,3.90
2022-10-26T10:38:40.242Z,6.23
2022-10-26T10:41:17.952Z,7.37
2022-10-26T10:43:49.673Z,4.03
2022-10-26T10:46:23.871Z,3.23
2022-10-26T10:48:56.492Z,6.17
2022-10-26T10:51:26.503Z,4.37
2022-10-26T10:53:56.689Z,5.17
2022-10-26T10:56:33.744Z,3.53
2022-10-26T10:59:34.650Z,5.83
2022-10-26T11:02:38.754Z,5.20
2022-10-26T11:05:27.415Z,6.13
2022-10-26T11:08:03.435Z,5.10
2022-10-26T11:10:35.223Z,5.03
2022-10-26T11:13:11.758Z,4.77
2022-10-26T11:15:42.133Z,7.43
2022-10-26T11:18:15.176Z,7.80
2022-10-26T11:20:48.740Z,4.77
2022-10-26T11:23:22.067Z,5.10
2022-10-26T11:25:54.685Z,3.40
2022-10-26T11:28:36.137Z,4.17
2022-10-26T11:31:11.523Z,4.67
2022-10-26T11:33:43.719Z,4.63
2022-10-26T11:36:19.718Z,4.33
2022-10-26T11:38:58.297Z,5.50
2022-10-26T11:41:33.252Z,5.23
2022-10-26T11:44:12.858Z,5.07
2022-10-26T11:46:45.279Z,3.60
2022-10-26T11:49:20.554Z,3.87
2022-10-26T11:51:51.696Z,6.47
2022-10-26T11:54:25.222Z,6.73
2022-10-26T11:56:56.095Z,4.70
2022-10-26T11:59:30.723Z,3.47
2022-10-26T12:02:05.827Z,5.93
2022-10-26T12:04:37.835Z,5.83
2022-10-26T12:07:11.159Z,5.87
2022-10-26T12:09:43.272Z,3.80
2022-10-26T12:12:18.617Z,4.67
2022-10-26T12:14:53.510Z,6.67
2022-10-26T12:17:30.604Z,4.17
2022-10-26T12:20:06.038Z,4.53
2022-10-26T12:22:37.727Z,3.27
2022-10-26T12:25:14.682Z,2.27
2022-10-26T12:27:54.976Z,3.83
2022-10-26T12:30:30.633Z,5.13
2022-10-26T12:33:00.715Z,5.40
2022-10-26T12:35:35.287Z,3.73
2022-10-26T12:38:19.147Z,3.50
2022-10-26T12:40:46.958Z,2.80
2022-10-26T12:43:34.406Z,6.77
2022-10-26T12:46:35.602Z,3.80
2022-10-26T12:49:04.846Z,4.10
2022-10-26T12:51:45.367Z,3.90
2022-10-26T12:54:33.251Z,3.27
2022-10-26T12:57:09.470Z,4.40
2022-10-26T12:59:46.411Z,3.17
2022-10-26T13:02:41.635Z,6.57
2022-10-26T13:05:32.803Z,1.97
2022-10-26T13:08:03.875Z,3.00
2022-10-26T13:10:31.876Z,3.93
2022-10-26T13:13:01.201Z,3.17
2022-10-26T13:15:31.327Z,2.50
2022-10-26T13:18:03.509Z,2.27
2022-10-26T13:20:33.371Z,2.30
2022-10-26T13:25:35.006Z,2.67
2022-10-26T13:28:05.807Z,3.37
2022-10-26T13:30:43.880Z,2.97
2022-10-26T13:33:32.605Z,1.90
2022-10-26T13:36:16.238Z,3.43
2022-10-26T13:38:47.691Z,3.00
2022-10-26T13:41:23.758Z,2.53
2022-10-26T13:43:53.109Z,5.87
2022-10-26T13:46:27.648Z,2.23
2022-10-26T13:49:02.226Z,3.43
2022-10-26T13:51:40.920Z,3.57
2022-10-26T13:54:19.328Z,2.90
2022-10-26T13:57:02.773Z,3.33
2022-10-26T13:59:32.747Z,1.63
2022-10-26T14:02:17.812Z,2.33
2022-10-26T14:04:48.608Z,2.80
2022-10-26T14:07:23.364Z,2.60
2022-10-26T14:09:56.491Z,2.97
2022-10-26T14:12:26.405Z,2.87
2022-10-26T14:14:55.241Z,1.60
2022-10-26T14:17:25.708Z,2.97
2022-10-26T14:19:54.364Z,3.13
2022-10-26T14:22:27.683Z,2.33
2022-10-26T14:24:57.149Z,4.27
2022-10-26T14:27:27.032Z,4.47
2022-10-26T14:30:21.001Z,3.00
2022-10-26T14:32:44.263Z,2.87
2022-10-26T14:35:13.643Z,5.90
2022-10-26T14:37:47.630Z,7.60
2022-10-26T14:40:18.651Z,3.53
2022-10-26T14:42:51.275Z,5.67
2022-10-26T14:45:46.848Z,4.57
2022-10-26T14:48:30.909Z,5.53
2022-10-26T14:51:03.527Z,2.93
2022-10-26T14:53:36.581Z,4.43
2022-10-26T14:56:06.713Z,3.80
2022-10-26T14:58:35.976Z,2.47
2022-10-26T15:01:18.071Z,4.93
2022-10-26T15:03:48.045Z,2.53
2022-10-26T15:06:40.058Z,3.00
2022-10-26T15:09:32.668Z,2.83
2022-10-26T15:12:02.804Z,3.87
2022-10-26T15:14:31.028Z,2.43
2022-10-26T15:17:00.095Z,4.00
2022-10-26T15:19:28.798Z,3.13
2022-10-26T15:21:56.755Z,6.23
2022-10-26T15:24:36.103Z,5.13
2022-10-26T15:27:14.399Z,2.87
2022-10-26T15:29:43.900Z,3.73
2022-10-26T15:32:30.469Z,2.87
2022-10-26T15:35:28.241Z,4.37
2022-10-26T15:37:57.572Z,4.57
2022-10-26T15:40:29.028Z,3.40
2022-10-26T15:43:00.496Z,7.10
2022-10-26T15:45:30.331Z,6.17
2022-10-26T15:48:00.241Z,6.17
2022-10-26T15:50:29.955Z,5.43
2022-10-26T15:53:01.640Z,2.57
2022-10-26T15:55:31.571Z,6.93
2022-10-26T15:57:59.400Z,4.90
2022-10-26T16:00:27.307Z,7.77
2022-10-26T16:02:55.185Z,11.07
2022-10-26T16:05:23.132Z,5.50
2022-10-26T16:07:51.404Z,10.90
2022-10-26T16:10:23.366Z,9.33
2022-10-26T16:12:52.571Z,5.60
2022-10-26T16:15:22.362Z,3.57
2022-10-26T16:17:50.876Z,3.83
2022-10-26T16:20:22.619Z,4.03
2022-10-26T16:22:51.776Z,5.17
2022-10-26T16:25:22.155Z,6.00
2022-10-26T16:27:51.747Z,6.63
2022-10-26T16:30:20.709Z,3.77
2022-10-26T16:32:48.962Z,9.70
2022-10-26T16:35:17.340Z,5.37
2022-10-26T16:37:46.287Z,3.80
2022-10-26T16:40:14.750Z,4.57
2022-10-26T16:42:44.451Z,5.93
2022-10-26T16:45:14.583Z,5.47
2022-10-26T16:47:42.419Z,6.83
2022-10-26T16:50:12.176Z,5.03
2022-10-26T16:52:40.551Z,7.30
2022-10-26T16:55:09.765Z,9.73
2022-10-26T16:57:38.539Z,8.27
2022-10-26T17:00:07.945Z,7.47
2022-10-26T17:02:37.262Z,5.93
2022-10-26T17:05:07.380Z,7.67
2022-10-26T17:07:35.773Z,10.27
2022-10-26T17:10:03.635Z,7.00
2022-10-26T17:12:31.719Z,6.43
2022-10-26T17:15:00.513Z,6.83
2022-10-26T17:17:28.562Z,7.77
2022-10-26T17:19:58.123Z,7.60
2022-10-26T17:22:26.063Z,8.70
2022-10-26T17:24:53.886Z,9.23
2022-10-26T17:27:22.968Z,7.87
2022-10-26T17:29:50.814Z,6.67
2022-10-26T17:32:18.646Z,7.33
2022-10-26T17:34:46.486Z,7.50
2022-10-26T17:37:15.743Z,9.07
2022-10-26T17:39:43.586Z,7.23
2022-10-26T17:42:11.391Z,10.17
2022-10-26T17:44:39.836Z,6.40
2022-10-26T17:47:08.658Z,7.57
2022-10-26T17:49:36.611Z,6.27
2022-10-26T17:52:05.888Z,12.93
2022-10-26T17:54:35.131Z,8.97
2022-10-26T17:57:03.226Z,17.00
2022-10-26T17:59:31.086Z,14.57
2022-10-26T18:01:58.994Z,15.70
2022-10-26T18:04:26.990Z,7.43
2022-10-26T18:06:54.809Z,11.03
2022-10-26T18:09:22.624Z,7.57
2022-10-26T18:11:54.887Z,6.57
2022-10-26T18:14:23.739Z,7.20
2022-10-26T18:16:51.668Z,6.27
2022-10-26T18:19:19.557Z,9.10
2022-10-26T18:21:47.450Z,7.23
2022-10-26T18:24:15.494Z,10.70
2022-10-26T18:26:43.527Z,9.03
2022-10-26T18:29:13.825Z,8.33
2022-10-26T18:31:41.838Z,9.13
2022-10-26T18:34:11.388Z,10.43
2022-10-26T18:36:39.239Z,10.93
2022-10-26T18:39:07.235Z,5.93
2022-10-26T18:41:35.073Z,9.03
2022-10-26T18:44:02.884Z,7.40
2022-10-26T18:46:39.315Z,8.37
2022-10-26T18:49:07.200Z,12.17
2022-10-26T18:51:35.990Z,15.90
2022-10-26T18:54:03.856Z,15.57
2022-10-26T18:56:31.989Z,12.20
2022-10-26T18:59:01.277Z,12.10
2022-10-26T19:01:32.521Z,10.50
2022-10-26T19:04:02.039Z,6.97
2022-10-26T19:06:31.756Z,11.27
2022-10-26T19:09:00.057Z,10.37
2022-10-26T19:11:29.718Z,10.80
2022-10-26T19:13:58.452Z,6.57
2022-10-26T19:16:44.608Z,9.37
2022-10-26T19:19:14.935Z,7.70
2022-10-26T19:21:42.954Z,11.03
2022-10-26T19:24:13.832Z,6.70
2022-10-26T19:26:43.855Z,8.77
2022-10-26T19:29:14.642Z,6.47
2022-10-26T19:31:43.033Z,7.13
2022-10-26T19:34:12.692Z,8.57
2022-10-26T19:36:44.718Z,6.80
2022-10-26T19:39:13.611Z,7.20
2022-10-26T19:41:41.576Z,7.10
2022-10-26T19:44:11.671Z,9.33
2022-10-26T19:46:39.741Z,15.17
2022-10-26T19:49:08.319Z,8.40
2022-10-26T19:51:36.354Z,8.20
2022-10-26T19:54:07.065Z,6.70
2022-10-26T19:56:36.597Z,7.43
2022-10-26T19:59:05.097Z,7.93
2022-10-26T20:01:34.119Z,9.70
2022-10-26T20:04:02.726Z,8.57
2022-10-26T20:06:31.509Z,6.30
2022-10-26T20:08:59.743Z,6.70
2022-10-26T20:11:31.899Z,7.10
2022-10-26T20:13:59.748Z,9.33
2022-10-26T20:16:27.768Z,7.77
2022-10-26T20:18:55.575Z,7.83
2022-10-26T20:21:23.399Z,7.50
2022-10-26T20:23:51.246Z,6.87
2022-10-26T20:26:19.949Z,8.00
2022-10-26T20:28:51.287Z,8.80
2022-10-26T20:31:19.636Z,7.83
2022-10-26T20:33:51.367Z,7.83
2022-10-26T20:36:19.259Z,6.87
2022-10-26T20:38:47.611Z,9.93
2022-10-26T20:41:16.019Z,6.23
2022-10-26T20:43:44.415Z,9.87
2022-10-26T20:46:24.756Z,6.43
2022-10-26T20:48:53.955Z,7.23
2022-10-26T20:51:35.353Z,7.57
2022-10-26T20:54:10.355Z,7.40
2022-10-26T20:56:41.827Z,6.03
2022-10-26T20:59:19.057Z,5.53
2022-10-26T21:01:48.257Z,6.73
2022-10-26T21:04:16.116Z,8.07
2022-10-26T21:06:43.971Z,9.30
2022-10-26T21:09:11.812Z,6.87
2022-10-26T21:11:39.684Z,8.77
2022-10-26T21:14:07.628Z,9.90
2022-10-26T21:16:35.611Z,8.03
2022-10-26T21:19:05.189Z,11.47
2022-10-26T21:21:33.070Z,9.07
2022-10-26T21:24:00.996Z,7.60
2022-10-26T21:26:28.795Z,6.17
2022-10-26T21:28:56.675Z,9.63
2022-10-26T21:31:24.500Z,7.70
2022-10-26T21:33:52.315Z,6.07
2022-10-26T21:36:21.872Z,6.17
2022-10-26T21:38:49.669Z,7.63
2022-10-26T21:41:19.326Z,6.23
2022-10-26T21:43:49.090Z,5.83
2022-10-26T21:46:17.906Z,7.70
2022-10-26T21:48:46.296Z,5.47
2022-10-26T21:51:15.839Z,6.80
2022-10-26T21:53:45.650Z,7.70
2022-10-26T21:56:15.166Z,5.57
2022-10-26T21:58:43.323Z,7.37
2022-10-26T22:01:13.448Z,5.47
2022-10-26T22:03:42.066Z,7.33
2022-10-26T22:06:14.573Z,6.93
2022-10-26T22:08:43.166Z,5.07
2022-10-26T22:11:15.725Z,4.80
2022-10-26T22:13:44.580Z,5.63
2022-10-26T22:16:14.795Z,4.63
2022-10-26T22:18:45.461Z,4.33
2022-10-26T22:21:14.270Z,6.40
2022-10-26T22:23:43.040Z,6.10
2022-10-26T22:26:14.223Z,5.67
2022-10-26T22:28:43.856Z,7.17
2022-10-26T22:31:13.615Z,5.50
2022-10-26T22:33:41.520Z,6.37
2022-10-26T22:36:11.475Z,6.87
2022-10-26T22:38:39.955Z,5.80
2022-10-26T22:41:07.849Z,6.37
2022-10-26T22:43:37.367Z,6.17
2022-10-26T22:46:07.485Z,5.83
2022-10-26T22:48:35.875Z,6.20
2022-10-26T22:51:06.539Z,9.50
2022-10-26T22:53:34.397Z,6.33
2022-10-26T22:56:02.871Z,5.73
2022-10-26T22:58:30.675Z,5.73
2022-10-26T23:01:05.160Z,3.47
2022-10-26T23:03:33.421Z,4.03
2022-10-26T23:06:02.156Z,7.27
2022-10-26T23:08:29.979Z,5.70
2022-10-26T23:10:59.788Z,6.67
2022-10-26T23:13:28.224Z,6.40
2022-10-26T23:15:56.131Z,5.47
2022-10-26T23:18:25.320Z,6.53
2022-10-26T23:20:53.398Z,4.80
2022-10-26T23:23:21.207Z,5.73
2022-10-26T23:25:49.012Z,6.47
2022-10-26T23:28:16.826Z,4.97
2022-10-26T23:30:46.859Z,5.67
2022-10-26T23:33:14.690Z,4.93
2022-10-26T23:35:44.015Z,4.23
2022-10-26T23:38:11.871Z,6.53
2022-10-26T23:40:39.750Z,6.27
2022-10-26T23:43:07.575Z,6.77
2022-10-26T23:45:35.421Z,7.30
2022-10-26T23:48:03.215Z,5.10
2022-10-26T23:50:31.039Z,4.97
2022-10-26T23:53:00.194Z,6.60
2022-10-26T23:55:28.413Z,5.33
2022-10-26T23:57:56.187Z,6.90
